sensor_id;sensor_type;location;lat;lon;timestamp;P1;durP1;ratioP1;P2;durP2;ratioP2
39982;SDS011;25670;44.782;10.356;2022-10-18T00:01:36;80.65;;;41.03;;
39982;SDS011;25670;44.782;10.356;2022-10-18T00:04:02;84.55;;;42.42;;
39982;SDS011;25670;44.782;10.356;2022-10-18T00:06:29;80.00;;;39.38;;
39982;SDS011;25670;44.782;10.356;2022-10-18T00:08:55;80.85;;;39.83;;
39982;SDS011;25670;44.782;10.356;2022-10-18T00:11:22;83.05;;;39.88;;
39982;SDS011;25670;44.782;10.356;2022-10-18T00:13:48;79.00;;;39.50;;
39982;SDS011;25670;44.782;10.356;2022-10-18T00:16:15;76.65;;;39.40;;
39982;SDS011;25670;44.782;10.356;2022-10-18T00:18:43;79.00;;;40.67;;
39982;SDS011;25670;44.782;10.356;2022-10-18T00:21:11;79.13;;;38.90;;
39982;SDS011;25670;44.782;10.356;2022-10-18T00:23:40;77.32;;;39.05;;
39982;SDS011;25670;44.782;10.356;2022-10-18T00:28:34;76.25;;;37.95;;
39982;SDS011;25670;44.782;10.356;2022-10-18T00:31:35;76.75;;;37.28;;
39982;SDS011;25670;44.782;10.356;2022-10-18T00:33:56;70.05;;;36.08;;
39982;SDS011;25670;44.782;10.356;2022-10-18T00:36:27;68.03;;;34.45;;
39982;SDS011;25670;44.782;10.356;2022-10-18T00:38:56;71.03;;;37.83;;
39982;SDS011;25670;44.782;10.356;2022-10-18T00:41:24;65.43;;;36.40;;
39982;SDS011;25670;44.782;10.356;2022-10-18T00:46:37;69.45;;;35.85;;
39982;SDS011;25670;44.782;10.356;2022-10-18T00:49:15;65.00;;;35.38;;
39982;SDS011;25670;44.782;10.356;2022-10-18T00:51:46;71.97;;;36.35;;
39982;SDS011;25670;44.782;10.356;2022-10-18T00:54:15;65.47;;;35.25;;
39982;SDS011;25670;44.782;10.356;2022-10-18T00:56:43;69.38;;;35.03;;
39982;SDS011;25670;44.782;10.356;2022-10-18T00:59:09;64.70;;;34.70;;
39982;SDS011;25670;44.782;10.356;2022-10-18T01:01:38;73.00;;;35.50;;
39982;SDS011;25670;44.782;10.356;2022-10-18T01:04:04;69.53;;;34.70;;
39982;SDS011;25670;44.782;10.356;2022-10-18T01:06:31;71.30;;;35.67;;
39982;SDS011;25670;44.782;10.356;2022-10-18T01:22:51;67.65;;;33.13;;
39982;SDS011;25670;44.782;10.356;2022-10-18T01:25:49;69.13;;;35.58;;
39982;SDS011;25670;44.782;10.356;2022-10-18T01:28:34;69.72;;;34.90;;
39982;SDS011;25670;44.782;10.356;2022-10-18T01:31:14;66.93;;;35.58;;
39982;SDS011;25670;44.782;10.356;2022-10-18T01:33:58;60.55;;;33.75;;
39982;SDS011;25670;44.782;10.356;2022-10-18T01:36:34;67.47;;;33.17;;
39982;SDS011;25670;44.782;10.356;2022-10-18T01:39:05;64.75;;;33.80;;
39982;SDS011;25670;44.782;10.356;2022-10-18T01:41:34;71.10;;;34.15;;
39982;SDS011;25670;44.782;10.356;2022-10-18T01:44:05;62.28;;;33.25;;
39982;SDS011;25670;44.782;10.356;2022-10-18T01:46:34;57.03;;;33.28;;
39982;SDS011;25670;44.782;10.356;2022-10-18T01:49:02;64.70;;;34.28;;
39982;SDS011;25670;44.782;10.356;2022-10-18T01:51:29;78.97;;;37.78;;
39982;SDS011;25670;44.782;10.356;2022-10-18T01:53:57;65.35;;;35.28;;
39982;SDS011;25670;44.782;10.356;2022-10-18T01:56:26;69.78;;;34.55;;
39982;SDS011;25670;44.782;10.356;2022-10-18T02:01:27;68.55;;;34.55;;
39982;SDS011;25670;44.782;10.356;2022-10-18T02:04:02;73.50;;;36.72;;
39982;SDS011;25670;44.782;10.356;2022-10-18T02:06:41;77.50;;;35.85;;
39982;SDS011;25670;44.782;10.356;2022-10-18T02:11:36;74.57;;;36.92;;
39982;SDS011;25670;44.782;10.356;2022-10-18T02:14:06;79.82;;;38.65;;
39982;SDS011;25670;44.782;10.356;2022-10-18T02:16:40;74.07;;;37.25;;
39982;SDS011;25670;44.782;10.356;2022-10-18T02:21:59;76.50;;;37.17;;
39982;SDS011;25670;44.782;10.356;2022-10-18T02:24:29;79.80;;;38.10;;
39982;SDS011;25670;44.782;10.356;2022-10-18T02:27:00;72.07;;;37.75;;
39982;SDS011;25670;44.782;10.356;2022-10-18T02:29:27;74.82;;;37.55;;
39982;SDS011;25670;44.782;10.356;2022-10-18T02:31:55;71.30;;;36.90;;
39982;SDS011;25670;44.782;10.356;2022-10-18T02:34:37;75.20;;;37.88;;
39982;SDS011;25670;44.782;10.356;2022-10-18T02:39:36;76.38;;;38.50;;
39982;SDS011;25670;44.782;10.356;2022-10-18T02:42:08;75.38;;;36.97;;
39982;SDS011;25670;44.782;10.356;2022-10-18T02:44:35;66.15;;;34.85;;
39982;SDS011;25670;44.782;10.356;2022-10-18T02:47:03;79.45;;;37.50;;
39982;SDS011;25670;44.782;10.356;2022-10-18T02:49:30;71.68;;;37.22;;
39982;SDS011;25670;44.782;10.356;2022-10-18T02:51:56;79.28;;;38.80;;
39982;SDS011;25670;44.782;10.356;2022-10-18T02:54:23;69.03;;;36.88;;
39982;SDS011;25670;44.782;10.356;2022-10-18T02:56:49;74.20;;;38.80;;
39982;SDS011;25670;44.782;10.356;2022-10-18T02:59:16;84.45;;;38.28;;
39982;SDS011;25670;44.782;10.356;2022-10-18T03:01:43;75.57;;;38.25;;
39982;SDS011;25670;44.782;10.356;2022-10-18T03:04:09;81.05;;;38.00;;
39982;SDS011;25670;44.782;10.356;2022-10-18T03:06:36;70.22;;;37.40;;
39982;SDS011;25670;44.782;10.356;2022-10-18T03:09:03;80.22;;;36.90;;
39982;SDS011;25670;44.782;10.356;2022-10-18T03:11:31;68.88;;;36.00;;
39982;SDS011;25670;44.782;10.356;2022-10-18T03:13:57;87.00;;;37.47;;
39982;SDS011;25670;44.782;10.356;2022-10-18T03:16:24;75.05;;;37.90;;
39982;SDS011;25670;44.782;10.356;2022-10-18T03:18:51;76.55;;;36.20;;
39982;SDS011;25670;44.782;10.356;2022-10-18T03:21:17;74.32;;;36.80;;
39982;SDS011;25670;44.782;10.356;2022-10-18T03:23:44;72.00;;;36.20;;
39982;SDS011;25670;44.782;10.356;2022-10-18T03:26:10;71.78;;;37.33;;
39982;SDS011;25670;44.782;10.356;2022-10-18T03:28:37;68.63;;;35.33;;
39982;SDS011;25670;44.782;10.356;2022-10-18T03:31:03;71.00;;;35.00;;
39982;SDS011;25670;44.782;10.356;2022-10-18T03:33:30;75.38;;;35.75;;
39982;SDS011;25670;44.782;10.356;2022-10-18T03:35:57;81.15;;;37.33;;
39982;SDS011;25670;44.782;10.356;2022-10-18T03:38:24;70.88;;;35.67;;
39982;SDS011;25670;44.782;10.356;2022-10-18T03:40:50;68.85;;;36.22;;
39982;SDS011;25670;44.782;10.356;2022-10-18T03:43:17;66.25;;;35.85;;
39982;SDS011;25670;44.782;10.356;2022-10-18T03:45:43;79.85;;;35.67;;
39982;SDS011;25670;44.782;10.356;2022-10-18T03:48:10;69.72;;;34.90;;
39982;SDS011;25670;44.782;10.356;2022-10-18T03:50:36;66.30;;;36.38;;
39982;SDS011;25670;44.782;10.356;2022-10-18T03:53:03;71.03;;;34.35;;
39982;SDS011;25670;44.782;10.356;2022-10-18T03:55:29;68.65;;;35.88;;
39982;SDS011;25670;44.782;10.356;2022-10-18T03:57:56;71.55;;;36.42;;
39982;SDS011;25670;44.782;10.356;2022-10-18T04:00:22;69.75;;;35.25;;
39982;SDS011;25670;44.782;10.356;2022-10-18T04:02:49;70.50;;;35.40;;
39982;SDS011;25670;44.782;10.356;2022-10-18T04:05:15;58.90;;;33.45;;
39982;SDS011;25670;44.782;10.356;2022-10-18T04:07:42;68.95;;;35.60;;
39982;SDS011;25670;44.782;10.356;2022-10-18T04:10:09;62.90;;;32.47;;
39982;SDS011;25670;44.782;10.356;2022-10-18T04:12:35;64.07;;;33.22;;
39982;SDS011;25670;44.782;10.356;2022-10-18T04:15:02;60.85;;;32.72;;
39982;SDS011;25670;44.782;10.356;2022-10-18T04:17:28;66.32;;;34.65;;
39982;SDS011;25670;44.782;10.356;2022-10-18T04:19:55;67.43;;;32.55;;
39982;SDS011;25670;44.782;10.356;2022-10-18T04:22:21;59.45;;;31.45;;
39982;SDS011;25670;44.782;10.356;2022-10-18T04:24:48;61.55;;;32.80;;
39982;SDS011;25670;44.782;10.356;2022-10-18T04:27:14;63.45;;;32.08;;
39982;SDS011;25670;44.782;10.356;2022-10-18T04:29:41;60.63;;;31.25;;
39982;SDS011;25670;44.782;10.356;2022-10-18T04:32:07;66.03;;;33.00;;
39982;SDS011;25670;44.782;10.356;2022-10-18T04:34:34;65.93;;;33.70;;
39982;SDS011;25670;44.782;10.356;2022-10-18T04:37:00;64.50;;;31.13;;
39982;SDS011;25670;44.782;10.356;2022-10-18T04:39:27;67.18;;;34.15;;
39982;SDS011;25670;44.782;10.356;2022-10-18T04:41:53;57.53;;;31.15;;
39982;SDS011;25670;44.782;10.356;2022-10-18T04:44:20;57.72;;;32.00;;
39982;SDS011;25670;44.782;10.356;2022-10-18T04:46:46;61.22;;;31.92;;
39982;SDS011;25670;44.782;10.356;2022-10-18T04:49:13;63.47;;;33.38;;
39982;SDS011;25670;44.782;10.356;2022-10-18T04:51:39;62.85;;;33.28;;
39982;SDS011;25670;44.782;10.356;2022-10-18T04:54:06;64.72;;;31.25;;
39982;SDS011;25670;44.782;10.356;2022-10-18T04:56:32;63.97;;;31.70;;
39982;SDS011;25670;44.782;10.356;2022-10-18T04:58:58;55.85;;;30.88;;
39982;SDS011;25670;44.782;10.356;2022-10-18T05:01:25;66.47;;;31.17;;
39982;SDS011;25670;44.782;10.356;2022-10-18T05:03:52;53.63;;;30.08;;
39982;SDS011;25670;44.782;10.356;2022-10-18T05:06:19;56.67;;;30.90;;
39982;SDS011;25670;44.782;10.356;2022-10-18T05:08:46;54.58;;;29.60;;
39982;SDS011;25670;44.782;10.356;2022-10-18T05:11:13;58.30;;;28.58;;
39982;SDS011;25670;44.782;10.356;2022-10-18T05:13:39;54.20;;;29.70;;
39982;SDS011;25670;44.782;10.356;2022-10-18T05:16:06;51.90;;;27.98;;
39982;SDS011;25670;44.782;10.356;2022-10-18T05:18:32;48.10;;;27.27;;
39982;SDS011;25670;44.782;10.356;2022-10-18T05:20:59;53.03;;;27.65;;
39982;SDS011;25670;44.782;10.356;2022-10-18T05:23:25;47.13;;;28.60;;
39982;SDS011;25670;44.782;10.356;2022-10-18T05:25:52;49.45;;;27.63;;
39982;SDS011;25670;44.782;10.356;2022-10-18T05:28:18;58.28;;;28.42;;
39982;SDS011;25670;44.782;10.356;2022-10-18T05:30:45;51.28;;;27.35;;
39982;SDS011;25670;44.782;10.356;2022-10-18T05:33:11;50.95;;;28.42;;
39982;SDS011;25670;44.782;10.356;2022-10-18T05:35:38;51.10;;;27.70;;
39982;SDS011;25670;44.782;10.356;2022-10-18T05:38:04;46.92;;;27.27;;
39982;SDS011;25670;44.782;10.356;2022-10-18T05:40:31;52.10;;;28.05;;
39982;SDS011;25670;44.782;10.356;2022-10-18T05:42:58;48.45;;;26.35;;
39982;SDS011;25670;44.782;10.356;2022-10-18T05:45:24;50.72;;;27.38;;
39982;SDS011;25670;44.782;10.356;2022-10-18T05:47:51;50.35;;;26.77;;
39982;SDS011;25670;44.782;10.356;2022-10-18T05:50:17;47.30;;;27.92;;
39982;SDS011;25670;44.782;10.356;2022-10-18T05:52:44;51.45;;;26.35;;
39982;SDS011;25670;44.782;10.356;2022-10-18T05:55:10;46.83;;;26.42;;
39982;SDS011;25670;44.782;10.356;2022-10-18T05:57:37;52.15;;;27.05;;
39982;SDS011;25670;44.782;10.356;2022-10-18T06:00:03;38.85;;;24.77;;
39982;SDS011;25670;44.782;10.356;2022-10-18T06:02:37;44.38;;;25.95;;
39982;SDS011;25670;44.782;10.356;2022-10-18T06:05:03;43.78;;;24.92;;
39982;SDS011;25670;44.782;10.356;2022-10-18T06:07:30;41.08;;;25.38;;
39982;SDS011;25670;44.782;10.356;2022-10-18T06:09:56;42.85;;;25.27;;
39982;SDS011;25670;44.782;10.356;2022-10-18T06:12:23;44.92;;;26.10;;
39982;SDS011;25670;44.782;10.356;2022-10-18T06:14:50;49.38;;;25.73;;
39982;SDS011;25670;44.782;10.356;2022-10-18T06:17:16;39.50;;;25.38;;
39982;SDS011;25670;44.782;10.356;2022-10-18T06:19:43;51.78;;;25.90;;
39982;SDS011;25670;44.782;10.356;2022-10-18T06:22:09;42.85;;;25.23;;
39982;SDS011;25670;44.782;10.356;2022-10-18T06:24:36;47.00;;;25.55;;
39982;SDS011;25670;44.782;10.356;2022-10-18T06:27:02;48.78;;;26.58;;
39982;SDS011;25670;44.782;10.356;2022-10-18T06:29:37;53.08;;;27.60;;
39982;SDS011;25670;44.782;10.356;2022-10-18T06:32:04;55.92;;;25.58;;
39982;SDS011;25670;44.782;10.356;2022-10-18T06:34:31;38.03;;;25.15;;
39982;SDS011;25670;44.782;10.356;2022-10-18T06:36:58;48.25;;;25.73;;
39982;SDS011;25670;44.782;10.356;2022-10-18T06:39:25;42.15;;;24.20;;
39982;SDS011;25670;44.782;10.356;2022-10-18T06:41:51;51.47;;;25.05;;
39982;SDS011;25670;44.782;10.356;2022-10-18T06:44:19;58.42;;;25.85;;
39982;SDS011;25670;44.782;10.356;2022-10-18T06:46:46;58.60;;;25.23;;
39982;SDS011;25670;44.782;10.356;2022-10-18T06:49:13;70.15;;;25.42;;
39982;SDS011;25670;44.782;10.356;2022-10-18T06:51:41;55.70;;;24.65;;
39982;SDS011;25670;44.782;10.356;2022-10-18T06:54:08;52.35;;;25.83;;
39982;SDS011;25670;44.782;10.356;2022-10-18T06:56:34;39.00;;;23.63;;
39982;SDS011;25670;44.782;10.356;2022-10-18T06:59:01;35.28;;;21.85;;
39982;SDS011;25670;44.782;10.356;2022-10-18T07:01:27;32.55;;;22.10;;
39982;SDS011;25670;44.782;10.356;2022-10-18T07:03:54;45.45;;;23.10;;
39982;SDS011;25670;44.782;10.356;2022-10-18T07:06:21;38.08;;;23.52;;
39982;SDS011;25670;44.782;10.356;2022-10-18T07:08:49;40.40;;;22.25;;
39982;SDS011;25670;44.782;10.356;2022-10-18T07:11:18;38.45;;;23.10;;
39982;SDS011;25670;44.782;10.356;2022-10-18T07:13:46;35.13;;;22.20;;
39982;SDS011;25670;44.782;10.356;2022-10-18T07:16:13;33.08;;;20.67;;
39982;SDS011;25670;44.782;10.356;2022-10-18T07:18:42;46.78;;;22.45;;
39982;SDS011;25670;44.782;10.356;2022-10-18T07:21:11;32.08;;;21.23;;
39982;SDS011;25670;44.782;10.356;2022-10-18T07:23:39;38.20;;;20.42;;
39982;SDS011;25670;44.782;10.356;2022-10-18T07:26:12;29.20;;;20.63;;
39982;SDS011;25670;44.782;10.356;2022-10-18T07:28:40;35.13;;;21.70;;
39982;SDS011;25670;44.782;10.356;2022-10-18T07:31:08;34.92;;;20.73;;
39982;SDS011;25670;44.782;10.356;2022-10-18T07:33:35;33.25;;;21.30;;
39982;SDS011;25670;44.782;10.356;2022-10-18T07:36:05;26.73;;;19.75;;
39982;SDS011;25670;44.782;10.356;2022-10-18T07:38:33;34.65;;;19.58;;
39982;SDS011;25670;44.782;10.356;2022-10-18T07:41:00;27.55;;;18.50;;
39982;SDS011;25670;44.782;10.356;2022-10-18T07:43:28;32.45;;;18.80;;
39982;SDS011;25670;44.782;10.356;2022-10-18T07:45:55;25.40;;;18.10;;
39982;SDS011;25670;44.782;10.356;2022-10-18T07:48:24;23.85;;;17.85;;
39982;SDS011;25670;44.782;10.356;2022-10-18T07:50:51;26.85;;;18.58;;
39982;SDS011;25670;44.782;10.356;2022-10-18T07:53:17;33.03;;;19.73;;
39982;SDS011;25670;44.782;10.356;2022-10-18T07:55:44;39.65;;;19.17;;
39982;SDS011;25670;44.782;10.356;2022-10-18T07:58:10;32.58;;;19.42;;
39982;SDS011;25670;44.782;10.356;2022-10-18T08:00:37;34.38;;;19.08;;
39982;SDS011;25670;44.782;10.356;2022-10-18T08:03:04;32.47;;;19.50;;
39982;SDS011;25670;44.782;10.356;2022-10-18T08:05:31;35.97;;;19.42;;
39982;SDS011;25670;44.782;10.356;2022-10-18T08:07:58;35.50;;;20.20;;
39982;SDS011;25670;44.782;10.356;2022-10-18T08:10:24;28.85;;;18.65;;
39982;SDS011;25670;44.782;10.356;2022-10-18T08:12:51;33.22;;;20.40;;
39982;SDS011;25670;44.782;10.356;2022-10-18T08:15:18;27.30;;;19.08;;
39982;SDS011;25670;44.782;10.356;2022-10-18T08:17:49;30.50;;;19.40;;
39982;SDS011;25670;44.782;10.356;2022-10-18T08:20:15;29.80;;;19.42;;
39982;SDS011;25670;44.782;10.356;2022-10-18T08:22:42;36.38;;;21.13;;
39982;SDS011;25670;44.782;10.356;2022-10-18T08:25:09;39.90;;;21.85;;
39982;SDS011;25670;44.782;10.356;2022-10-18T08:27:35;34.88;;;21.90;;
39982;SDS011;25670;44.782;10.356;2022-10-18T08:30:01;41.25;;;22.70;;
39982;SDS011;25670;44.782;10.356;2022-10-18T08:32:28;60.50;;;24.90;;
39982;SDS011;25670;44.782;10.356;2022-10-18T08:34:54;43.33;;;25.83;;
39982;SDS011;25670;44.782;10.356;2022-10-18T08:37:21;60.05;;;27.98;;
39982;SDS011;25670;44.782;10.356;2022-10-18T08:39:47;43.00;;;26.85;;
39982;SDS011;25670;44.782;10.356;2022-10-18T08:45:02;55.03;;;32.20;;
39982;SDS011;25670;44.782;10.356;2022-10-18T08:47:33;47.88;;;28.08;;
39982;SDS011;25670;44.782;10.356;2022-10-18T08:50:01;55.25;;;28.27;;
39982;SDS011;25670;44.782;10.356;2022-10-18T08:52:52;49.25;;;29.85;;
39982;SDS011;25670;44.782;10.356;2022-10-18T08:55:25;57.80;;;30.77;;
39982;SDS011;25670;44.782;10.356;2022-10-18T08:58:03;53.13;;;31.45;;
39982;SDS011;25670;44.782;10.356;2022-10-18T09:01:02;53.70;;;31.52;;
39982;SDS011;25670;44.782;10.356;2022-10-18T09:03:39;59.30;;;32.17;;
39982;SDS011;25670;44.782;10.356;2022-10-18T09:11:54;58.63;;;31.85;;
39982;SDS011;25670;44.782;10.356;2022-10-18T09:15:05;58.45;;;32.38;;
39982;SDS011;25670;44.782;10.356;2022-10-18T09:20:24;64.88;;;33.47;;
39982;SDS011;25670;44.782;10.356;2022-10-18T09:25:59;68.90;;;36.40;;
39982;SDS011;25670;44.782;10.356;2022-10-18T09:32:03;70.32;;;37.40;;
39982;SDS011;25670;44.782;10.356;2022-10-18T09:34:41;67.10;;;37.90;;
39982;SDS011;25670;44.782;10.356;2022-10-18T09:37:16;76.65;;;37.17;;
39982;SDS011;25670;44.782;10.356;2022-10-18T09:39:44;76.60;;;37.50;;
39982;SDS011;25670;44.782;10.356;2022-10-18T09:42:24;82.22;;;38.42;;
39982;SDS011;25670;44.782;10.356;2022-10-18T09:51:03;93.13;;;42.85;;
39982;SDS011;25670;44.782;10.356;2022-10-18T09:53:39;75.03;;;39.95;;
39982;SDS011;25670;44.782;10.356;2022-10-18T09:56:09;75.20;;;41.25;;
39982;SDS011;25670;44.782;10.356;2022-10-18T09:58:46;80.13;;;43.35;;
39982;SDS011;25670;44.782;10.356;2022-10-18T10:01:20;86.40;;;47.05;;
39982;SDS011;25670;44.782;10.356;2022-10-18T10:03:51;102.95;;;46.15;;
39982;SDS011;25670;44.782;10.356;2022-10-18T10:06:22;80.70;;;42.10;;
39982;SDS011;25670;44.782;10.356;2022-10-18T10:08:53;85.13;;;43.90;;
39982;SDS011;25670;44.782;10.356;2022-10-18T10:11:44;79.90;;;42.60;;
39982;SDS011;25670;44.782;10.356;2022-10-18T10:14:13;83.47;;;46.67;;
39982;SDS011;25670;44.782;10.356;2022-10-18T10:16:52;86.20;;;46.53;;
39982;SDS011;25670;44.782;10.356;2022-10-18T10:19:30;86.80;;;45.15;;
39982;SDS011;25670;44.782;10.356;2022-10-18T10:22:08;87.15;;;44.78;;
39982;SDS011;25670;44.782;10.356;2022-10-18T10:24:47;78.82;;;44.38;;
39982;SDS011;25670;44.782;10.356;2022-10-18T10:32:14;77.80;;;44.42;;
39982;SDS011;25670;44.782;10.356;2022-10-18T10:34:43;85.68;;;47.05;;
39982;SDS011;25670;44.782;10.356;2022-10-18T10:37:24;92.72;;;48.72;;
